Terminal Aerodrome Forecast
Issued by NWS Charleston, WV

Home | Current Version | Previous Version | Text Only | Print | Product List | Glossary On
Versions: 1 2 3 4 5 6 7 8 9 10 11 12 13 14 15 16 17 18 19 20 21 22 23 24 25 26 27 28
000
FTUS41 KRLX 271500 AAA
TAFEKN
TAF AMD
KEKN 271505Z 2715/2812 31012G20KT P6SM BKN045
     FM272100 30014G24KT 6SM -SHRA BR BKN035
     FM280100 31008KT P6SM BKN030=

USA.gov is the U.S. government's official web portal to all federal, state and local government web resources and services.